Time;durP1;ratioP1;P1;durP2;ratioP2;P2;SDS_P1;SDS_P2;PMS_P1;PMS_P2;Temp;Humidity;BMP_temperature;BMP_pressure;BME280_temperature;BME280_humidity;BME280_pressure;Samples;Min_cycle;Max_cycle;Signal;HPM_P1;HPM_P2
2023/01/26 00:01:54;;;;;;;24.93;10.27;;;2.30;1.00;;;;;;6187793;23;20178;-89
2023/01/26 00:04:21;;;;;;;30.20;10.50;;;2.30;1.00;;;;;;6186297;23;20241;-90
2023/01/26 00:06:47;;;;;;;27.90;10.93;;;2.20;1.00;;;;;;6186941;23;20182;-90
2023/01/26 00:09:14;;;;;;;34.57;11.73;;;2.20;1.00;;;;;;6187404;23;20173;-89
2023/01/26 00:11:41;;;;;;;29.37;11.93;;;2.20;1.00;;;;;;6187203;23;20171;-90
2023/01/26 00:14:09;;;;;;;30.03;11.47;;;2.30;1.00;;;;;;6187341;23;20187;-89
2023/01/26 00:16:36;;;;;;;30.23;11.20;;;2.30;1.00;;;;;;6187462;23;20178;-88
2023/01/26 00:19:03;;;;;;;28.17;11.67;;;2.40;1.00;;;;;;6186389;23;20183;-89
2023/01/26 00:21:30;;;;;;;25.60;10.50;;;2.40;1.00;;;;;;6187534;23;20178;-89
2023/01/26 00:23:58;;;;;;;23.57;10.40;;;2.30;1.00;;;;;;6187261;23;20193;-90
2023/01/26 00:26:27;;;;;;;21.80;10.13;;;2.30;1.00;;;;;;6186825;23;20176;-89
2023/01/26 00:28:54;;;;;;;19.33;9.00;;;2.30;1.00;;;;;;6187282;23;20176;-89
2023/01/26 00:31:25;;;;;;;21.53;10.23;;;2.30;1.00;;;;;;6186731;23;20176;-89
2023/01/26 00:33:53;;;;;;;25.27;10.37;;;2.30;1.00;;;;;;6186537;23;20168;-89
2023/01/26 00:36:20;;;;;;;22.37;9.17;;;2.30;1.00;;;;;;6187218;23;20172;-89
2023/01/26 00:38:47;;;;;;;24.17;10.00;;;2.30;1.00;;;;;;6187012;23;20169;-89
2023/01/26 00:43:54;;;;;;;22.67;9.30;;;2.40;1.00;;;;;;6185047;23;20248;-90
2023/01/26 00:46:23;;;;;;;24.40;9.83;;;2.30;1.00;;;;;;6187173;23;20169;-90
2023/01/26 00:48:49;;;;;;;24.00;10.60;;;2.40;1.00;;;;;;6186739;23;20526;-89
2023/01/26 00:51:16;;;;;;;29.50;11.03;;;2.40;1.00;;;;;;6186513;23;20277;-89
2023/01/26 00:53:43;;;;;;;24.83;9.93;;;2.40;1.00;;;;;;6186956;23;20530;-89
2023/01/26 00:56:10;;;;;;;25.30;9.83;;;2.40;1.00;;;;;;6186990;23;20504;-89
2023/01/26 00:58:36;;;;;;;30.73;11.30;;;2.40;1.00;;;;;;6187039;23;20254;-88
2023/01/26 01:01:03;;;;;;;27.00;10.27;;;2.40;99.90;;;;;;6186414;23;20173;-89
2023/01/26 01:03:31;;;;;;;25.40;9.97;;;2.50;99.90;;;;;;6186224;23;20685;-89
2023/01/26 01:05:58;;;;;;;22.00;9.20;;;2.40;99.90;;;;;;6186884;23;20170;-89
2023/01/26 01:08:25;;;;;;;24.97;9.67;;;2.40;99.90;;;;;;6186760;23;20170;-89
2023/01/26 01:11:03;;;;;;;31.07;11.27;;;2.30;99.90;;;;;;6186811;23;20172;-90
2023/01/26 01:13:29;;;;;;;27.00;9.60;;;2.30;1.00;;;;;;6186347;23;20599;-89
2023/01/26 01:15:56;;;;;;;27.83;10.23;;;2.30;1.00;;;;;;6186089;23;20164;-89
2023/01/26 01:18:23;;;;;;;31.00;10.57;;;2.30;1.00;;;;;;6186369;23;20176;-89
2023/01/26 01:20:51;;;;;;;24.70;9.30;;;2.30;1.00;;;;;;6186469;23;20175;-89
2023/01/26 01:23:18;;;;;;;28.03;10.40;;;2.30;1.00;;;;;;6186207;23;20196;-90
2023/01/26 01:25:46;;;;;;;23.17;9.23;;;2.30;1.00;;;;;;6186701;23;20181;-89
2023/01/26 01:28:12;;;;;;;22.13;9.10;;;2.40;1.00;;;;;;6186355;23;20176;-89
2023/01/26 01:30:40;;;;;;;24.73;9.53;;;2.40;1.00;;;;;;6186009;23;20176;-89
2023/01/26 01:33:06;;;;;;;21.90;9.30;;;2.40;1.00;;;;;;6186608;23;20197;-90
2023/01/26 01:35:34;;;;;;;21.90;8.70;;;2.40;1.00;;;;;;6186345;23;20179;-88
2023/01/26 01:38:03;;;;;;;25.57;9.10;;;2.40;99.90;;;;;;6186593;23;20259;-89
2023/01/26 01:40:30;;;;;;;26.33;10.00;;;2.30;99.90;;;;;;6186178;23;20176;-89
2023/01/26 01:42:56;;;;;;;25.07;9.80;;;2.30;1.00;;;;;;6185865;23;20632;-89
2023/01/26 01:45:51;;;;;;;27.87;10.43;;;2.30;1.00;;;;;;6186158;23;20180;-89
2023/01/26 01:48:25;;;;;;;30.87;10.77;;;2.30;1.00;;;;;;6186503;23;20162;-89
2023/01/26 01:50:54;;;;;;;23.97;9.83;;;2.40;1.00;;;;;;6186415;23;20190;-89
2023/01/26 01:53:27;;;;;;;26.40;9.60;;;2.40;99.90;;;;;;6186327;23;20178;-89
2023/01/26 01:55:56;;;;;;;23.00;9.97;;;2.40;99.90;;;;;;6186329;23;20161;-90
2023/01/26 01:58:23;;;;;;;24.43;10.20;;;2.40;99.90;;;;;;6185769;23;20172;-90
2023/01/26 02:00:50;;;;;;;22.70;9.00;;;2.40;99.90;;;;;;6185889;23;20644;-89
2023/01/26 02:03:20;;;;;;;20.07;9.47;;;2.40;99.90;;;;;;6185707;23;20525;-89
2023/01/26 02:05:54;;;;;;;24.83;9.43;;;2.40;99.90;;;;;;6186214;23;20172;-89
2023/01/26 02:08:25;;;;;;;20.17;8.50;;;2.40;99.90;;;;;;6186253;23;20241;-90
2023/01/26 02:10:55;;;;;;;22.10;9.47;;;2.40;99.90;;;;;;6186190;23;20167;-89
2023/01/26 02:13:24;;;;;;;23.43;9.10;;;2.40;99.90;;;;;;6186003;23;20149;-89
2023/01/26 02:15:51;;;;;;;30.23;10.47;;;2.40;1.00;;;;;;6185881;23;20173;-88
2023/01/26 02:18:18;;;;;;;23.47;8.93;;;2.50;1.00;;;;;;6185882;23;20171;-89
2023/01/26 02:20:47;;;;;;;27.07;9.73;;;2.40;99.90;;;;;;6185941;23;20176;-89
2023/01/26 02:23:30;;;;;;;26.00;9.40;;;2.50;99.90;;;;;;6185672;23;20189;-89
2023/01/26 02:26:04;;;;;;;22.73;10.03;;;2.40;99.90;;;;;;6186101;23;20157;-88
2023/01/26 02:28:31;;;;;;;28.10;9.67;;;2.50;99.90;;;;;;6185590;23;20170;-89
2023/01/26 02:30:59;;;;;;;23.83;9.73;;;2.50;99.90;;;;;;6185220;23;20173;-89
2023/01/26 02:33:28;;;;;;;23.63;9.53;;;2.50;99.90;;;;;;6185915;23;20166;-89
2023/01/26 02:35:55;;;;;;;22.73;10.00;;;2.50;99.90;;;;;;6186012;23;20169;-89
2023/01/26 02:38:23;;;;;;;24.77;10.50;;;2.50;99.90;;;;;;6185999;23;20173;-88
2023/01/26 02:40:54;;;;;;;24.20;10.03;;;2.50;99.90;;;;;;6185510;23;20188;-89
2023/01/26 02:43:24;;;;;;;28.17;10.30;;;2.50;99.90;;;;;;6185499;23;20502;-89
2023/01/26 02:45:51;;;;;;;29.23;9.90;;;2.50;99.90;;;;;;6186124;23;20489;-89
2023/01/26 02:49:45;;;;;;;27.90;10.50;;;2.50;99.90;;;;;;6185511;23;20634;-89
2023/01/26 02:51:05;;;;;;;26.17;9.90;;;2.50;99.90;;;;;;6185235;23;20575;-89
2023/01/26 02:53:32;;;;;;;28.43;10.90;;;2.50;99.90;;;;;;6185526;23;20620;-88
2023/01/26 02:55:58;;;;;;;30.77;10.37;;;2.50;99.90;;;;;;6186435;23;20173;-89
2023/01/26 02:58:26;;;;;;;29.77;10.47;;;2.50;99.90;;;;;;6187211;23;20244;-89
2023/01/26 03:00:53;;;;;;;25.13;9.93;;;2.50;99.90;;;;;;6187655;23;20176;-89
2023/01/26 03:03:22;;;;;;;27.73;10.07;;;2.50;99.90;;;;;;6187650;23;20259;-90
2023/01/26 03:05:49;;;;;;;28.17;10.23;;;2.50;99.90;;;;;;6187658;23;20178;-89
2023/01/26 03:08:16;;;;;;;22.70;10.00;;;2.50;99.90;;;;;;6187842;23;20252;-89
2023/01/26 03:10:42;;;;;;;24.90;9.43;;;2.50;99.90;;;;;;6187341;23;20176;-89
2023/01/26 03:13:09;;;;;;;27.20;9.57;;;2.50;99.90;;;;;;6186935;23;20184;-89
2023/01/26 03:15:51;;;;;;;25.33;9.10;;;2.50;99.90;;;;;;6187483;23;20172;-89
2023/01/26 03:29:25;;;;;;;20.37;8.20;;;2.50;99.90;;;;;;6096579;23;20285;-89
2023/01/26 03:31:53;;;;;;;22.47;9.00;;;2.50;99.90;;;;;;6096683;23;20262;-89
2023/01/26 03:34:20;;;;;;;20.43;8.90;;;2.50;99.90;;;;;;6096086;23;20170;-89
2023/01/26 03:36:47;;;;;;;22.67;9.23;;;2.50;99.90;;;;;;6096122;23;20509;-90
2023/01/26 03:58:23;;;;;;;20.80;8.50;;;2.50;99.90;;;;;;6125314;23;20173;-89
2023/01/26 04:00:50;;;;;;;20.57;8.77;;;2.40;99.90;;;;;;6157575;23;20174;-89
2023/01/26 04:08:47;;;;;;;24.43;9.93;;;2.40;99.90;;;;;;6157369;23;20158;-89
2023/01/26 04:11:14;;;;;;;25.53;10.07;;;2.40;99.90;;;;;;6157641;23;20169;-89
2023/01/26 04:21:56;;;;;;;31.37;9.90;;;2.30;99.90;;;;;;6157293;23;20176;-89
2023/01/26 04:24:23;;;;;;;29.10;10.50;;;2.30;99.90;;;;;;6156757;23;20216;-89
2023/01/26 04:26:50;;;;;;;27.80;10.57;;;2.30;1.00;;;;;;6157441;23;20556;-88
2023/01/26 04:29:17;;;;;;;25.47;9.27;;;2.30;1.00;;;;;;6157284;23;20169;-88
2023/01/26 04:31:44;;;;;;;28.77;9.77;;;2.40;99.90;;;;;;6157508;23;20173;-90
2023/01/26 04:34:15;;;;;;;27.93;9.87;;;2.30;99.90;;;;;;6157114;23;20620;-89
2023/01/26 04:36:42;;;;;;;26.63;9.47;;;2.30;1.00;;;;;;6157057;23;20156;-89
2023/01/26 04:39:09;;;;;;;23.03;10.27;;;2.30;1.00;;;;;;6156996;23;20508;-89
2023/01/26 04:41:36;;;;;;;22.63;8.77;;;2.30;1.00;;;;;;6156869;23;20173;-89
2023/01/26 04:44:03;;;;;;;24.30;9.47;;;2.30;1.00;;;;;;6156964;23;20194;-89
2023/01/26 04:46:31;;;;;;;26.90;9.53;;;2.30;1.00;;;;;;6157166;23;20176;-89
2023/01/26 04:48:58;;;;;;;27.17;9.63;;;2.30;1.00;;;;;;6157094;23;20174;-89
2023/01/26 04:51:27;;;;;;;29.27;9.83;;;2.30;1.00;;;;;;6181536;23;20206;-89
2023/01/26 04:53:54;;;;;;;34.57;11.20;;;2.30;1.00;;;;;;6186327;23;20206;-88
2023/01/26 04:56:23;;;;;;;32.03;10.03;;;2.30;1.00;;;;;;6186637;23;20626;-89
2023/01/26 04:58:50;;;;;;;28.20;10.00;;;2.30;1.00;;;;;;6186481;23;20179;-89
2023/01/26 05:01:18;;;;;;;44.27;11.37;;;2.30;1.00;;;;;;6186626;23;20482;-89
2023/01/26 05:03:44;;;;;;;32.10;11.53;;;2.30;1.00;;;;;;6186184;23;20195;-89
2023/01/26 05:06:12;;;;;;;39.03;10.73;;;2.30;1.00;;;;;;6186296;23;20163;-88
2023/01/26 05:08:40;;;;;;;42.20;11.63;;;2.30;1.00;;;;;;6186279;23;20177;-89
2023/01/26 05:11:06;;;;;;;33.20;10.17;;;2.30;1.00;;;;;;6186642;23;20183;-89
2023/01/26 05:13:34;;;;;;;29.30;10.43;;;2.30;1.00;;;;;;6186737;23;20173;-88
2023/01/26 05:16:01;;;;;;;25.33;10.07;;;2.30;1.00;;;;;;6186507;23;20179;-90
2023/01/26 05:18:28;;;;;;;32.00;10.00;;;2.30;1.00;;;;;;6186310;23;20171;-88
2023/01/26 05:20:55;;;;;;;30.00;9.63;;;2.30;1.00;;;;;;6186060;23;20630;-88
2023/01/26 05:23:22;;;;;;;26.43;9.97;;;2.30;1.00;;;;;;6185994;23;20165;-89
2023/01/26 05:25:50;;;;;;;25.60;10.30;;;2.30;1.00;;;;;;6186449;23;20201;-88
2023/01/26 05:28:17;;;;;;;26.73;10.37;;;2.30;1.00;;;;;;6185927;23;20176;-89
2023/01/26 05:30:44;;;;;;;23.50;9.90;;;2.30;1.00;;;;;;6186366;23;20170;-88
2023/01/26 05:33:11;;;;;;;22.87;9.87;;;2.40;1.00;;;;;;6186260;23;20169;-90
2023/01/26 05:35:38;;;;;;;26.07;10.00;;;2.30;1.00;;;;;;6185986;23;20551;-89
2023/01/26 05:38:05;;;;;;;27.57;10.03;;;2.40;1.00;;;;;;6186421;23;20179;-89
2023/01/26 05:40:31;;;;;;;25.67;10.03;;;2.30;1.00;;;;;;6186520;23;20228;-89
2023/01/26 05:42:59;;;;;;;24.50;9.60;;;2.40;1.00;;;;;;6186441;23;20173;-88
2023/01/26 05:45:26;;;;;;;27.70;10.50;;;2.40;1.00;;;;;;6185582;23;20196;-89
2023/01/26 05:47:53;;;;;;;27.43;10.23;;;2.40;1.00;;;;;;6185854;23;20168;-89
2023/01/26 05:50:20;;;;;;;28.93;10.40;;;2.40;1.00;;;;;;6186307;23;20189;-89
2023/01/26 05:52:47;;;;;;;32.50;11.37;;;2.40;1.00;;;;;;6186213;23;20182;-88
2023/01/26 05:55:14;;;;;;;40.70;12.73;;;2.40;1.00;;;;;;6186197;23;20657;-89
2023/01/26 05:57:40;;;;;;;42.07;13.47;;;2.40;1.00;;;;;;6185806;23;20176;-89
2023/01/26 06:00:11;;;;;;;45.70;15.03;;;2.40;1.00;;;;;;6186648;23;20182;-90
2023/01/26 06:02:38;;;;;;;38.73;11.50;;;2.40;1.00;;;;;;6186229;23;20485;-89
2023/01/26 06:05:06;;;;;;;34.53;9.70;;;2.40;1.00;;;;;;6185898;23;20222;-90
2023/01/26 19:40:01;;;;;;;45.20;16.83;;;1.10;1.00;;;;;;6175566;23;20209;-90
2023/01/26 19:42:28;;;;;;;58.13;21.07;;;1.10;1.00;;;;;;6185707;23;20218;-91
2023/01/26 19:44:55;;;;;;;49.60;16.87;;;1.10;1.00;;;;;;6185927;23;20189;-90
2023/01/26 19:47:22;;;;;;;45.90;15.13;;;1.10;1.00;;;;;;6186392;23;20174;-90
2023/01/26 19:49:49;;;;;;;47.60;14.80;;;1.10;1.00;;;;;;6186612;23;20170;-91
2023/01/26 19:52:16;;;;;;;40.77;14.27;;;1.10;1.00;;;;;;6186261;23;20169;-91
2023/01/26 19:54:43;;;;;;;47.03;14.57;;;1.10;26.60;;;;;;6186377;23;20170;-90
2023/01/26 19:57:11;;;;;;;55.07;17.53;;;1.00;99.90;;;;;;6186367;23;20167;-90
2023/01/26 19:59:38;;;;;;;52.17;16.87;;;1.00;99.90;;;;;;6186545;23;20237;-90
2023/01/26 20:02:05;;;;;;;52.57;16.17;;;1.00;99.90;;;;;;6187693;23;20556;-90
2023/01/26 20:04:32;;;;;;;155.23;57.10;;;1.00;99.90;;;;;;6187335;23;20240;-91
2023/01/26 20:07:00;;;;;;;61.83;17.60;;;1.00;1.00;;;;;;6187203;23;20173;-91
2023/01/26 20:09:32;;;;;;;59.47;18.53;;;1.00;99.90;;;;;;6187849;23;20175;-91
2023/01/26 20:11:59;;;;;;;55.90;17.70;;;1.00;99.90;;;;;;6187845;23;20210;-90
2023/01/26 20:14:27;;;;;;;59.27;17.57;;;1.00;99.90;;;;;;6187864;23;20232;-91
2023/01/26 20:16:54;;;;;;;58.13;17.17;;;1.10;1.00;;;;;;6187747;23;20166;-91
2023/01/26 20:19:21;;;;;;;53.93;16.83;;;1.10;99.90;;;;;;6187688;23;20232;-91
2023/01/26 20:21:49;;;;;;;53.77;17.43;;;1.10;99.90;;;;;;6186840;23;20182;-90
2023/01/26 20:24:16;;;;;;;43.47;15.00;;;1.10;1.00;;;;;;6187374;23;20206;-91
2023/01/26 20:26:44;;;;;;;47.03;16.80;;;1.10;1.00;;;;;;6187629;23;20210;-91
2023/01/26 20:29:13;;;;;;;38.83;12.43;;;1.10;1.00;;;;;;6187980;23;20174;-91
2023/01/26 20:31:42;;;;;;;35.90;13.33;;;1.10;1.00;;;;;;6187512;23;20177;-91
2023/01/26 20:34:09;;;;;;;37.40;12.50;;;1.20;1.00;;;;;;6187854;23;20221;-91
2023/01/26 20:36:39;;;;;;;40.13;14.47;;;1.20;1.00;;;;;;6187566;23;20232;-90
2023/01/26 20:39:07;;;;;;;45.90;14.00;;;1.20;99.90;;;;;;6187563;23;20535;-91
2023/01/26 20:41:35;;;;;;;29.73;12.00;;;1.20;1.00;;;;;;6186667;23;20543;-92
2023/01/26 20:44:04;;;;;;;25.17;9.50;;;1.20;1.00;;;;;;6186986;23;20237;-91
2023/01/26 20:46:34;;;;;;;36.57;11.97;;;1.20;1.00;;;;;;6187453;23;20240;-91
2023/01/26 20:49:03;;;;;;;29.13;10.23;;;1.30;99.90;;;;;;6186634;23;20178;-91
2023/01/26 20:51:32;;;;;;;33.00;12.30;;;1.20;99.90;;;;;;6187612;23;20220;-91
2023/01/26 20:54:00;;;;;;;30.10;12.23;;;1.20;99.90;;;;;;6187948;23;20528;-92
2023/01/26 20:56:27;;;;;;;22.57;9.23;;;1.30;99.90;;;;;;6187744;23;20175;-92
2023/01/26 20:58:55;;;;;;;30.57;11.23;;;1.30;99.90;;;;;;6187724;23;20174;-92
2023/01/26 21:01:23;;;;;;;27.63;11.13;;;1.20;99.90;;;;;;6187780;23;20553;-91
2023/01/26 21:03:51;;;;;;;26.87;10.67;;;1.30;99.90;;;;;;6187416;23;20171;-90
2023/01/26 21:06:22;;;;;;;32.37;11.57;;;1.20;99.90;;;;;;6187252;23;20249;-91
2023/01/26 21:08:53;;;;;;;35.80;12.47;;;1.20;99.90;;;;;;6188059;23;20154;-90
2023/01/26 21:11:20;;;;;;;31.83;11.00;;;1.30;99.90;;;;;;6187657;23;20159;-91
2023/01/26 21:13:48;;;;;;;35.27;12.10;;;1.30;44.40;;;;;;6187500;23;20248;-91
2023/01/26 21:16:16;;;;;;;36.63;13.30;;;1.20;70.90;;;;;;6187496;23;20168;-91
2023/01/26 21:18:44;;;;;;;37.27;12.63;;;1.20;99.90;;;;;;6186867;23;20179;-90
2023/01/26 21:21:13;;;;;;;44.10;13.77;;;1.30;99.90;;;;;;6186222;23;20166;-91
2023/01/26 21:23:42;;;;;;;40.30;14.17;;;1.30;99.90;;;;;;6187011;23;20224;-91
2023/01/26 21:26:12;;;;;;;41.63;14.07;;;1.30;99.90;;;;;;6186766;23;20192;-90
2023/01/26 21:28:39;;;;;;;35.67;13.50;;;1.30;99.90;;;;;;6187082;23;20154;-90
